Time;durP1;ratioP1;P1;durP2;ratioP2;P2;SDS_P1;SDS_P2;PMS_P1;PMS_P2;Temp;Humidity;BMP_temperature;BMP_pressure;BME280_temperature;BME280_humidity;BME280_pressure;Samples;Min_cycle;Max_cycle;Signal;HPM_P1;HPM_P2
2022/08/08 00:01:21;;;;;;;3.97;2.83;;;19.60;99.90;;;;;;5007566;28;20197;-70
2022/08/08 00:04:00;;;;;;;7.65;3.40;;;19.60;99.90;;;;;;5002756;28;20209;-70
2022/08/08 00:06:36;;;;;;;6.03;3.00;;;19.60;99.90;;;;;;5001723;28;20200;-69
2022/08/08 00:09:22;;;;;;;6.03;3.22;;;19.50;99.90;;;;;;5008892;28;20291;-69
2022/08/08 00:11:58;;;;;;;4.57;3.08;;;19.50;99.90;;;;;;5003173;28;20200;-69
2022/08/08 00:14:47;;;;;;;4.05;2.78;;;19.40;99.90;;;;;;4997843;28;20205;-68
2022/08/08 00:17:30;;;;;;;3.95;2.95;;;19.40;99.90;;;;;;5002173;28;20244;-69
2022/08/08 00:20:04;;;;;;;5.82;3.20;;;19.30;99.90;;;;;;5004717;28;20279;-69
2022/08/08 00:22:42;;;;;;;7.53;3.55;;;19.30;99.90;;;;;;5023342;23;20180;-74
2022/08/08 00:25:14;;;;;;;4.55;2.60;;;19.30;99.90;;;;;;5019532;28;20211;-74
2022/08/08 00:27:42;;;;;;;5.88;3.45;;;19.20;99.90;;;;;;5010666;28;20284;-74
2022/08/08 00:30:10;;;;;;;6.95;3.67;;;19.20;99.90;;;;;;5011656;28;20208;-74
2022/08/08 00:32:42;;;;;;;5.10;3.60;;;19.20;99.90;;;;;;5010941;28;20720;-74
2022/08/08 00:35:32;;;;;;;4.20;3.30;;;19.20;99.90;;;;;;5011637;28;20161;-74
2022/08/08 00:38:30;;;;;;;4.47;2.83;;;19.20;99.90;;;;;;4993393;28;20336;-74
2022/08/08 00:41:05;;;;;;;5.10;2.95;;;19.20;99.90;;;;;;5011932;28;20385;-74
2022/08/08 00:43:36;;;;;;;5.63;3.28;;;19.30;99.90;;;;;;5011436;28;20669;-74
2022/08/08 00:46:48;;;;;;;5.45;3.10;;;19.20;99.90;;;;;;5005465;28;20205;-75
2022/08/08 00:49:31;;;;;;;3.75;3.00;;;19.20;99.90;;;;;;5009418;28;20196;-74
2022/08/08 00:52:03;;;;;;;5.15;3.20;;;19.20;99.90;;;;;;5009204;28;20196;-74
2022/08/08 00:54:43;;;;;;;3.75;2.97;;;19.10;99.90;;;;;;5012823;28;20677;-74
2022/08/08 00:57:39;;;;;;;4.28;3.30;;;19.10;99.90;;;;;;5014142;28;20839;-74
2022/08/08 01:00:13;;;;;;;3.03;2.72;;;19.10;99.90;;;;;;5009531;28;20322;-75
2022/08/08 01:03:12;;;;;;;4.35;3.10;;;19.10;99.90;;;;;;5010052;28;20641;-75
2022/08/08 01:06:16;;;;;;;6.68;2.88;;;19.10;99.90;;;;;;5011199;28;20279;-74
2022/08/08 01:09:26;;;;;;;3.88;2.90;;;19.00;99.90;;;;;;5010376;28;20203;-74
2022/08/08 01:12:28;;;;;;;3.65;2.65;;;19.00;99.90;;;;;;5007385;28;20279;-74
2022/08/08 01:15:44;;;;;;;4.03;2.88;;;19.00;99.90;;;;;;5007328;28;20192;-75
2022/08/08 01:18:12;;;;;;;3.63;2.65;;;19.00;99.90;;;;;;4989158;28;20287;-73
2022/08/08 01:20:56;;;;;;;4.85;3.10;;;18.90;99.90;;;;;;5010595;28;20204;-74
2022/08/08 01:23:48;;;;;;;4.97;2.72;;;18.90;99.90;;;;;;4999480;28;20706;-73
2022/08/08 01:26:26;;;;;;;3.25;2.35;;;19.00;99.90;;;;;;5007583;28;20573;-78
2022/08/08 01:29:10;;;;;;;5.45;2.65;;;18.90;99.90;;;;;;5009683;28;20172;-74
2022/08/08 01:31:59;;;;;;;3.30;2.90;;;19.00;99.90;;;;;;4990670;28;20208;-74
2022/08/08 01:34:36;;;;;;;3.83;2.60;;;18.90;99.90;;;;;;5008437;28;20604;-74
2022/08/08 01:37:37;;;;;;;5.15;3.08;;;18.90;99.90;;;;;;5010801;28;20205;-74
2022/08/08 01:40:14;;;;;;;4.10;2.90;;;18.90;99.90;;;;;;5003489;28;20204;-74
2022/08/08 01:42:57;;;;;;;3.88;2.85;;;18.80;99.90;;;;;;5010419;28;20231;-74
2022/08/08 01:45:47;;;;;;;5.57;3.05;;;18.80;99.90;;;;;;5010591;28;20201;-74
2022/08/08 01:48:41;;;;;;;3.03;2.70;;;18.80;99.90;;;;;;5007497;28;20209;-74
2022/08/08 01:51:41;;;;;;;4.88;2.97;;;18.80;99.90;;;;;;5009368;28;20541;-74
2022/08/08 01:54:41;;;;;;;5.63;2.80;;;18.80;99.90;;;;;;5010162;28;20262;-74
2022/08/08 01:57:31;;;;;;;5.35;3.13;;;18.80;99.90;;;;;;5008605;28;20586;-74
2022/08/08 02:00:44;;;;;;;4.40;3.00;;;18.80;99.90;;;;;;5008821;28;20232;-75
2022/08/08 02:03:42;;;;;;;4.10;3.40;;;18.70;99.90;;;;;;4983854;28;20201;-74
2022/08/08 02:06:33;;;;;;;5.07;2.75;;;18.70;99.90;;;;;;4994989;28;20209;-74
2022/08/08 02:09:02;;;;;;;3.28;2.60;;;18.70;99.90;;;;;;4992184;28;20205;-74
2022/08/08 02:11:42;;;;;;;5.03;2.90;;;18.70;99.90;;;;;;5013791;28;20204;-74
2022/08/08 02:14:40;;;;;;;4.63;2.92;;;18.70;99.90;;;;;;5011903;28;20197;-74
2022/08/08 02:17:23;;;;;;;5.45;3.40;;;18.70;99.90;;;;;;5013632;28;20378;-74
2022/08/08 02:20:07;;;;;;;4.32;2.80;;;18.70;99.90;;;;;;5012000;28;20193;-74
2022/08/08 02:23:13;;;;;;;4.50;3.05;;;18.60;99.90;;;;;;5012353;28;20212;-73
2022/08/08 02:26:14;;;;;;;3.88;2.97;;;18.60;99.90;;;;;;4995884;28;20212;-74
2022/08/08 02:28:57;;;;;;;4.93;2.88;;;18.60;99.90;;;;;;5012952;28;20205;-74
2022/08/08 02:32:03;;;;;;;6.78;3.70;;;18.60;99.90;;;;;;5019959;28;20272;-75
2022/08/08 02:35:07;;;;;;;4.65;2.70;;;18.60;99.90;;;;;;4968241;28;20231;-74
2022/08/08 02:37:48;;;;;;;6.22;2.90;;;18.60;99.90;;;;;;4989971;28;20197;-75
2022/08/08 02:40:35;;;;;;;3.78;2.60;;;18.50;99.90;;;;;;5013043;28;20204;-74
2022/08/08 02:43:25;;;;;;;4.72;2.97;;;18.50;99.90;;;;;;5013104;28;20209;-74
2022/08/08 02:46:16;;;;;;;5.22;3.33;;;18.50;99.90;;;;;;4992793;28;20262;-74
2022/08/08 02:49:06;;;;;;;6.15;2.88;;;18.40;99.90;;;;;;4994652;28;20635;-74
2022/08/08 02:51:35;;;;;;;5.28;3.13;;;18.50;99.90;;;;;;5011376;28;20220;-74
2022/08/08 02:54:34;;;;;;;6.50;3.28;;;18.40;99.90;;;;;;5011879;28;20225;-74
2022/08/08 02:57:09;;;;;;;3.92;2.92;;;18.40;99.90;;;;;;5006834;28;20614;-74
2022/08/08 02:59:37;;;;;;;4.85;3.13;;;18.40;99.90;;;;;;5012439;28;20223;-75
2022/08/08 03:02:11;;;;;;;6.63;3.58;;;18.40;99.90;;;;;;5011913;28;20700;-74
2022/08/08 03:04:58;;;;;;;4.32;3.20;;;18.30;99.90;;;;;;5012969;28;20251;-74
2022/08/08 03:08:03;;;;;;;7.20;3.63;;;18.30;99.90;;;;;;5012315;28;20567;-74
2022/08/08 03:11:01;;;;;;;4.93;3.65;;;18.30;99.90;;;;;;5010107;28;20220;-74
2022/08/08 03:13:48;;;;;;;10.02;4.03;;;18.20;99.90;;;;;;4948042;28;20702;-74
2022/08/08 03:16:43;;;;;;;8.82;3.35;;;18.10;99.90;;;;;;5012478;28;20209;-75
2022/08/08 03:19:23;;;;;;;4.30;3.08;;;18.10;99.90;;;;;;5011976;28;20209;-74
2022/08/08 03:21:49;;;;;;;4.97;3.00;;;18.10;99.90;;;;;;4977953;28;20559;-74
2022/08/08 03:24:18;;;;;;;7.05;3.17;;;18.00;99.90;;;;;;5012278;28;20200;-74
2022/08/08 03:26:51;;;;;;;4.07;3.38;;;18.00;99.90;;;;;;4994270;28;20296;-75
2022/08/08 03:29:22;;;;;;;6.50;3.55;;;18.00;99.90;;;;;;5012038;28;20205;-74
2022/08/08 03:34:34;;;;;;;5.00;3.50;;;17.80;99.90;;;;;;5011264;28;20259;-74
2022/08/08 03:36:59;;;;;;;4.22;3.38;;;17.80;99.90;;;;;;5011809;28;20205;-74
2022/08/08 03:39:25;;;;;;;5.55;3.53;;;17.70;99.90;;;;;;4994060;28;20212;-74
2022/08/08 03:41:50;;;;;;;4.85;3.10;;;17.70;99.90;;;;;;5012164;28;20724;-74
2022/08/08 03:44:16;;;;;;;7.07;3.80;;;17.70;99.90;;;;;;5012626;28;20213;-74
2022/08/08 03:46:47;;;;;;;4.90;3.20;;;17.70;99.90;;;;;;5002858;28;20181;-73
2022/08/08 03:49:25;;;;;;;5.22;3.58;;;17.60;99.90;;;;;;5011717;28;20232;-73
2022/08/08 03:51:55;;;;;;;5.55;3.35;;;17.70;99.90;;;;;;5012158;28;20697;-74
2022/08/08 03:54:23;;;;;;;6.75;2.97;;;17.70;99.90;;;;;;5011470;28;20720;-73
2022/08/08 03:56:48;;;;;;;6.47;3.10;;;17.70;99.90;;;;;;5012021;28;20616;-75
2022/08/08 03:59:14;;;;;;;4.95;3.47;;;17.70;99.90;;;;;;5011447;28;20309;-75
2022/08/08 04:01:41;;;;;;;8.30;3.97;;;17.70;99.90;;;;;;5012067;28;20169;-75
2022/08/08 04:04:07;;;;;;;4.50;3.35;;;17.70;99.90;;;;;;4994481;28;20213;-74
2022/08/08 04:06:33;;;;;;;5.68;3.42;;;17.70;99.90;;;;;;5012083;28;20243;-75
2022/08/08 04:09:00;;;;;;;6.70;3.00;;;17.70;99.90;;;;;;5011755;28;20236;-74
2022/08/08 04:11:26;;;;;;;5.53;3.80;;;17.80;99.90;;;;;;5011038;28;20203;-74
2022/08/08 04:13:52;;;;;;;4.60;3.17;;;17.80;99.90;;;;;;5012115;28;20189;-75
2022/08/08 04:16:19;;;;;;;5.60;3.80;;;17.90;99.90;;;;;;5001393;28;20279;-74
2022/08/08 04:18:47;;;;;;;13.18;4.10;;;17.90;99.90;;;;;;4993371;28;20683;-74
2022/08/08 04:21:13;;;;;;;6.38;3.63;;;17.90;99.90;;;;;;5011182;28;20197;-74
2022/08/08 04:23:39;;;;;;;9.55;4.10;;;17.90;99.90;;;;;;5001262;28;20239;-74
2022/08/08 04:26:05;;;;;;;5.85;3.60;;;18.00;99.90;;;;;;5011309;28;20248;-75
2022/08/08 04:28:31;;;;;;;6.40;4.18;;;18.00;99.90;;;;;;5011239;28;20185;-74
2022/08/08 04:30:57;;;;;;;5.53;3.35;;;18.00;99.90;;;;;;5011167;28;20209;-74
2022/08/08 04:33:22;;;;;;;4.28;3.53;;;18.10;99.90;;;;;;5011118;28;20216;-72
2022/08/08 04:35:48;;;;;;;9.82;4.20;;;18.10;99.90;;;;;;5010264;28;20212;-74
2022/08/08 04:38:13;;;;;;;6.53;3.75;;;18.20;99.90;;;;;;5008564;28;20177;-74
2022/08/08 04:40:39;;;;;;;7.88;3.40;;;18.30;99.90;;;;;;5011349;28;20670;-76
2022/08/08 04:43:05;;;;;;;6.93;3.58;;;19.00;99.90;;;;;;4993424;28;20238;-74
2022/08/08 04:45:31;;;;;;;6.40;3.85;;;21.20;99.90;;;;;;4993296;28;20205;-74
2022/08/08 04:47:57;;;;;;;6.13;3.55;;;23.20;99.90;;;;;;4988898;28;20254;-74
2022/08/08 04:50:23;;;;;;;8.82;3.80;;;24.50;99.90;;;;;;5010278;28;20558;-74
2022/08/08 04:52:49;;;;;;;8.88;3.88;;;25.40;99.90;;;;;;5009397;28;20554;-74
2022/08/08 04:55:14;;;;;;;9.25;3.80;;;26.30;99.90;;;;;;5010786;28;20189;-75
2022/08/08 04:57:40;;;;;;;8.55;3.50;;;27.00;99.90;;;;;;5001621;28;20278;-75
2022/08/08 05:00:06;;;;;;;6.97;3.92;;;27.50;99.90;;;;;;5010533;28;20213;-74
2022/08/08 05:02:32;;;;;;;9.30;3.65;;;27.60;99.90;;;;;;5010524;28;20213;-75
2022/08/08 05:04:59;;;;;;;8.57;4.05;;;27.70;99.90;;;;;;5010850;28;20177;-75
2022/08/08 05:07:24;;;;;;;5.63;3.42;;;26.80;99.90;;;;;;5011044;28;20279;-75
2022/08/08 05:09:50;;;;;;;6.32;3.67;;;27.50;99.90;;;;;;5010568;28;20252;-75
2022/08/08 05:12:15;;;;;;;4.95;3.60;;;28.30;98.80;;;;;;5010958;28;20398;-75
2022/08/08 05:14:41;;;;;;;5.03;3.25;;;28.40;96.60;;;;;;5010620;28;20201;-75
2022/08/08 05:17:07;;;;;;;6.22;3.38;;;27.80;94.90;;;;;;5010758;28;20254;-75
2022/08/08 05:19:36;;;;;;;6.97;2.80;;;26.80;93.60;;;;;;5011004;28;20225;-75
2022/08/08 05:22:09;;;;;;;6.35;2.97;;;26.40;93.20;;;;;;5010506;28;20193;-75
2022/08/08 05:24:36;;;;;;;19.90;5.35;;;27.50;93.30;;;;;;5008611;28;20220;-74
2022/08/08 05:27:02;;;;;;;7.57;3.53;;;27.50;92.70;;;;;;5010688;28;20697;-74
2022/08/08 05:29:27;;;;;;;7.47;3.42;;;28.30;91.70;;;;;;5010332;28;20201;-75
2022/08/08 05:31:53;;;;;;;7.32;3.25;;;29.50;90.20;;;;;;4993433;28;20251;-75
2022/08/08 05:34:28;;;;;;;4.75;3.00;;;29.80;89.20;;;;;;5012378;28;20201;-76
2022/08/08 05:36:55;;;;;;;5.68;3.45;;;29.70;87.70;;;;;;5013105;28;20215;-75
2022/08/08 05:39:22;;;;;;;5.75;3.65;;;29.90;86.80;;;;;;5013824;28;20205;-75
2022/08/08 05:41:50;;;;;;;8.25;7.38;;;29.20;86.60;;;;;;5014523;28;20192;-75
2022/08/08 05:44:19;;;;;;;5.30;2.83;;;29.20;86.40;;;;;;4996971;28;20562;-76
2022/08/08 05:46:45;;;;;;;3.88;2.90;;;30.20;85.70;;;;;;5014426;28;20518;-75
2022/08/08 05:49:12;;;;;;;5.00;3.10;;;29.80;83.90;;;;;;5013920;28;20208;-74
2022/08/08 05:51:39;;;;;;;3.80;3.08;;;30.20;83.80;;;;;;5014496;28;20287;-76
2022/08/08 05:54:06;;;;;;;3.28;2.97;;;30.70;82.70;;;;;;5011462;28;20711;-74
2022/08/08 05:56:36;;;;;;;7.57;3.50;;;31.10;81.20;;;;;;5013975;28;20224;-73
2022/08/08 05:59:16;;;;;;;5.13;3.28;;;31.70;79.50;;;;;;5014079;28;20582;-73
2022/08/08 06:01:42;;;;;;;3.53;3.17;;;32.10;78.30;;;;;;5013795;28;20177;-75
2022/08/08 06:04:10;;;;;;;7.47;3.80;;;32.30;77.10;;;;;;5013938;28;20211;-74
2022/08/08 06:06:39;;;;;;;8.50;3.17;;;32.50;76.00;;;;;;5014028;28;20250;-74
2022/08/08 06:09:06;;;;;;;6.45;3.78;;;32.90;75.30;;;;;;5013610;28;20254;-75
2022/08/08 06:11:32;;;;;;;5.30;3.53;;;33.70;73.60;;;;;;4996127;28;20224;-74
2022/08/08 06:13:59;;;;;;;4.95;3.70;;;34.30;71.20;;;;;;5013608;28;20188;-75
2022/08/08 06:16:26;;;;;;;5.43;4.30;;;34.30;69.80;;;;;;5014014;28;20176;-74
2022/08/08 06:18:53;;;;;;;4.75;2.83;;;33.20;69.60;;;;;;5013457;28;20201;-75
2022/08/08 06:21:20;;;;;;;5.10;3.60;;;34.20;69.30;;;;;;4995946;28;20564;-74
2022/08/08 06:23:46;;;;;;;3.60;3.28;;;34.80;68.00;;;;;;5013363;28;20681;-74
2022/08/08 06:26:12;;;;;;;6.85;4.68;;;34.10;67.60;;;;;;5013712;28;20196;-75
2022/08/08 06:29:08;;;;;;;5.20;3.63;;;33.60;68.40;;;;;;5013701;28;20200;-74
2022/08/08 06:31:36;;;;;;;5.30;4.03;;;34.20;66.90;;;;;;5014441;28;20207;-74
2022/08/08 06:34:12;;;;;;;7.30;3.35;;;34.50;65.80;;;;;;5013431;28;20209;-74
2022/08/08 06:36:41;;;;;;;6.13;3.28;;;34.00;65.70;;;;;;4994573;28;20235;-74
2022/08/08 06:39:09;;;;;;;4.82;3.53;;;34.20;66.90;;;;;;5012757;28;20572;-74
2022/08/08 06:41:49;;;;;;;3.75;2.88;;;34.70;65.40;;;;;;5037117;22;20223;-70
2022/08/08 06:44:17;;;;;;;4.97;2.88;;;35.40;64.60;;;;;;5009503;28;20267;-70
2022/08/08 06:46:43;;;;;;;6.00;3.08;;;35.30;63.20;;;;;;5015409;28;20172;-70
2022/08/08 06:49:10;;;;;;;5.63;3.53;;;34.40;63.40;;;;;;5014364;28;20196;-70
2022/08/08 06:51:35;;;;;;;5.72;3.22;;;34.60;63.80;;;;;;5011406;28;20302;-70
2022/08/08 06:54:01;;;;;;;5.53;3.53;;;36.00;63.00;;;;;;5013025;28;20293;-70
2022/08/08 06:56:29;;;;;;;6.15;3.00;;;36.50;60.90;;;;;;5010485;28;20240;-70
2022/08/08 06:58:55;;;;;;;7.68;3.80;;;35.80;60.90;;;;;;5015006;28;20192;-70
2022/08/08 07:01:28;;;;;;;5.05;3.80;;;35.70;61.20;;;;;;5013137;28;20275;-70
2022/08/08 07:04:07;;;;;;;6.10;4.05;;;36.20;62.30;;;;;;5013062;28;20227;-70
2022/08/08 07:06:33;;;;;;;6.47;4.53;;;35.90;61.70;;;;;;5010890;28;20237;-70
2022/08/08 07:09:10;;;;;;;7.88;4.05;;;36.70;61.50;;;;;;5012661;28;20692;-69
2022/08/08 07:11:40;;;;;;;8.70;4.18;;;36.40;61.10;;;;;;5010974;28;20281;-68
2022/08/08 07:14:07;;;;;;;8.40;4.60;;;36.90;60.80;;;;;;5012721;28;20168;-69
2022/08/08 07:17:00;;;;;;;7.63;4.40;;;37.10;60.70;;;;;;5014431;28;20172;-69
2022/08/08 07:19:47;;;;;;;8.20;4.60;;;37.50;60.20;;;;;;5011466;28;20228;-69
2022/08/08 07:22:22;;;;;;;10.43;4.13;;;37.30;59.40;;;;;;5010520;28;20208;-69
2022/08/08 07:24:53;;;;;;;9.88;4.70;;;37.10;59.50;;;;;;4990505;28;20196;-68
2022/08/08 07:27:23;;;;;;;5.68;4.18;;;36.80;58.70;;;;;;5012458;28;20613;-68
2022/08/08 07:29:50;;;;;;;5.25;4.75;;;36.90;59.40;;;;;;5011142;28;20199;-69
2022/08/08 07:32:17;;;;;;;7.65;4.40;;;37.30;59.10;;;;;;5012335;28;20204;-69
2022/08/08 07:34:43;;;;;;;6.57;3.70;;;38.20;58.60;;;;;;5012116;28;20168;-69
2022/08/08 07:37:11;;;;;;;5.63;4.28;;;38.90;57.50;;;;;;5012167;28;20200;-68
2022/08/08 07:39:41;;;;;;;9.93;4.35;;;40.30;56.40;;;;;;4994315;28;20787;-69
2022/08/08 07:42:10;;;;;;;7.43;4.15;;;40.40;55.50;;;;;;5011987;28;20209;-69
2022/08/08 07:44:37;;;;;;;8.23;4.28;;;39.20;55.50;;;;;;5012032;28;20547;-68
2022/08/08 07:47:03;;;;;;;5.07;3.90;;;38.60;55.90;;;;;;5011900;28;20639;-69
2022/08/08 07:49:29;;;;;;;5.03;4.00;;;38.90;56.00;;;;;;5006241;28;20196;-69
2022/08/08 07:51:57;;;;;;;6.38;3.97;;;38.70;56.00;;;;;;5011702;28;20208;-68
2022/08/08 07:54:29;;;;;;;6.68;4.05;;;38.00;55.90;;;;;;5011722;28;20291;-69
2022/08/08 07:57:04;;;;;;;4.03;3.10;;;38.10;55.80;;;;;;5006379;28;20216;-69
2022/08/08 07:59:37;;;;;;;4.18;3.50;;;38.70;55.60;;;;;;5011131;28;20212;-69
2022/08/08 08:02:08;;;;;;;5.15;3.67;;;39.30;54.70;;;;;;5011628;28;20200;-68
2022/08/08 08:04:38;;;;;;;3.97;3.58;;;39.10;54.30;;;;;;5010635;28;20642;-68
2022/08/08 08:07:07;;;;;;;4.97;3.25;;;38.60;53.90;;;;;;5011636;28;20200;-69
2022/08/08 08:09:37;;;;;;;4.97;3.28;;;38.30;54.40;;;;;;4993603;28;20193;-69
2022/08/08 08:12:04;;;;;;;4.78;3.78;;;38.90;54.50;;;;;;5007537;28;20204;-69
2022/08/08 08:14:52;;;;;;;3.85;3.17;;;38.60;53.40;;;;;;5011141;28;20235;-68
2022/08/08 08:17:19;;;;;;;5.97;3.65;;;38.30;53.50;;;;;;5008311;28;20593;-68
2022/08/08 08:19:47;;;;;;;4.70;3.20;;;37.90;53.90;;;;;;5011195;28;20688;-70
2022/08/08 08:22:14;;;;;;;5.15;2.97;;;37.80;53.60;;;;;;5011137;28;20208;-70
2022/08/08 08:24:41;;;;;;;3.70;2.75;;;38.00;53.20;;;;;;4992673;28;20612;-70
2022/08/08 08:27:06;;;;;;;5.63;2.45;;;37.20;53.60;;;;;;5011325;28;20541;-70
2022/08/08 08:29:32;;;;;;;4.90;2.97;;;37.10;53.90;;;;;;5010662;28;20304;-70
2022/08/08 08:31:58;;;;;;;3.75;3.03;;;36.90;53.70;;;;;;5011356;28;20573;-70
2022/08/08 08:34:24;;;;;;;3.70;2.80;;;36.70;53.90;;;;;;5002535;28;20260;-70
2022/08/08 08:36:49;;;;;;;3.67;2.70;;;36.60;54.80;;;;;;5011138;28;20615;-70
2022/08/08 08:39:15;;;;;;;4.22;2.45;;;36.80;54.80;;;;;;5010667;28;20232;-70
2022/08/08 08:41:41;;;;;;;3.05;2.33;;;37.70;54.30;;;;;;4993152;28;20217;-70
2022/08/08 08:44:09;;;;;;;5.75;5.18;;;37.70;53.70;;;;;;5010982;28;20172;-70
2022/08/08 08:46:36;;;;;;;4.82;3.63;;;37.80;53.60;;;;;;5011403;28;20168;-70
2022/08/08 08:49:02;;;;;;;3.45;2.53;;;38.00;53.20;;;;;;5011701;28;20204;-69
2022/08/08 08:51:29;;;;;;;5.93;3.47;;;37.30;52.90;;;;;;5010963;28;20219;-70
2022/08/08 08:53:55;;;;;;;9.60;6.35;;;37.00;53.90;;;;;;4992938;28;20201;-70
2022/08/08 08:56:24;;;;;;;4.35;2.70;;;36.40;54.40;;;;;;4993169;28;20262;-69
2022/08/08 08:58:51;;;;;;;4.82;3.10;;;35.60;53.40;;;;;;5007323;28;20184;-70
2022/08/08 09:01:21;;;;;;;3.00;1.90;;;35.50;54.80;;;;;;5010734;28;20200;-69
2022/08/08 09:03:49;;;;;;;2.42;2.22;;;35.60;54.60;;;;;;5010855;28;20224;-70
2022/08/08 09:06:17;;;;;;;2.38;1.58;;;35.60;54.30;;;;;;5010754;28;20200;-70
2022/08/08 09:08:45;;;;;;;3.55;2.50;;;36.00;53.70;;;;;;5009840;28;20208;-69
2022/08/08 09:11:13;;;;;;;3.33;2.40;;;35.80;54.40;;;;;;5010833;28;20275;-70
2022/08/08 09:13:40;;;;;;;2.70;2.25;;;36.00;54.50;;;;;;5011382;28;20180;-70
2022/08/08 09:16:06;;;;;;;3.53;2.00;;;36.10;54.30;;;;;;5010947;28;20253;-69
2022/08/08 09:18:31;;;;;;;2.13;1.70;;;35.90;53.70;;;;;;5009930;28;20211;-70
2022/08/08 09:21:04;;;;;;;5.75;5.00;;;35.60;53.70;;;;;;5010517;28;20208;-70
2022/08/08 09:23:30;;;;;;;4.50;3.05;;;35.50;54.80;;;;;;5008217;28;20204;-70
2022/08/08 09:26:06;;;;;;;3.70;2.40;;;35.20;55.10;;;;;;5010746;28;20257;-70
2022/08/08 09:28:37;;;;;;;3.42;2.17;;;35.00;55.40;;;;;;5010558;28;20219;-70
2022/08/08 09:31:11;;;;;;;5.75;3.60;;;35.00;55.20;;;;;;5010694;28;20292;-70
2022/08/08 09:33:40;;;;;;;4.03;2.47;;;34.90;55.90;;;;;;5001983;28;20205;-70
2022/08/08 09:36:11;;;;;;;5.10;1.90;;;34.60;55.40;;;;;;4993410;28;20267;-70
2022/08/08 09:38:53;;;;;;;2.75;1.80;;;34.30;55.60;;;;;;5010204;28;20242;-69
2022/08/08 09:41:32;;;;;;;3.10;2.22;;;34.00;56.00;;;;;;5010783;28;20213;-69
2022/08/08 09:44:10;;;;;;;4.35;2.00;;;32.60;56.60;;;;;;5010299;28;20169;-70
2022/08/08 09:46:40;;;;;;;3.40;2.05;;;32.50;57.50;;;;;;5009695;28;20636;-69
2022/08/08 09:49:06;;;;;;;4.53;2.15;;;32.70;57.90;;;;;;5011088;28;20215;-69
2022/08/08 09:51:32;;;;;;;4.35;2.15;;;33.00;57.80;;;;;;5010095;28;20216;-69
2022/08/08 09:54:02;;;;;;;4.13;2.40;;;33.20;57.20;;;;;;5010386;28;20204;-70
2022/08/08 09:56:36;;;;;;;3.80;3.40;;;33.10;57.60;;;;;;5007194;28;20594;-70
2022/08/08 09:59:03;;;;;;;2.80;2.10;;;33.00;57.70;;;;;;4992427;28;20658;-70
2022/08/08 10:01:31;;;;;;;4.03;3.05;;;32.30;58.20;;;;;;5010343;28;20200;-71
2022/08/08 10:03:58;;;;;;;4.70;3.67;;;32.00;58.30;;;;;;5010177;28;20193;-69
2022/08/08 10:06:23;;;;;;;3.00;2.70;;;32.30;58.60;;;;;;4981999;28;20202;-70
2022/08/08 10:08:50;;;;;;;3.63;2.10;;;32.50;58.20;;;;;;5009660;28;20347;-70
2022/08/08 10:11:21;;;;;;;2.97;2.10;;;32.70;58.00;;;;;;5010419;28;20220;-69
2022/08/08 10:13:58;;;;;;;4.10;3.47;;;32.30;57.30;;;;;;5009271;28;20180;-69
2022/08/08 10:16:35;;;;;;;4.47;2.90;;;32.20;58.10;;;;;;5007657;28;20262;-69
2022/08/08 10:19:10;;;;;;;3.47;2.53;;;32.20;58.10;;;;;;5009833;28;20217;-70
2022/08/08 10:21:37;;;;;;;2.30;2.10;;;32.50;58.20;;;;;;5010997;28;20685;-69
2022/08/08 10:24:08;;;;;;;6.07;2.83;;;32.70;58.40;;;;;;5013788;28;20291;-70
2022/08/08 10:26:42;;;;;;;3.35;2.20;;;33.10;58.00;;;;;;5024141;28;20208;-70
2022/08/08 10:29:10;;;;;;;5.25;2.38;;;32.60;57.40;;;;;;5021499;28;20257;-69
2022/08/08 10:34:26;;;;;;;5.93;3.53;;;32.50;59.00;;;;;;5011699;28;20609;-69
2022/08/08 10:36:52;;;;;;;7.55;4.82;;;32.70;58.30;;;;;;5013595;28;20283;-69
2022/08/08 10:39:23;;;;;;;8.27;3.03;;;32.60;58.70;;;;;;5013123;28;20244;-69
2022/08/08 10:42:00;;;;;;;2.97;2.10;;;32.30;57.70;;;;;;4992049;28;20256;-70
2022/08/08 10:44:36;;;;;;;3.70;2.83;;;32.40;58.00;;;;;;5013154;28;20196;-70
2022/08/08 10:47:17;;;;;;;3.05;2.75;;;32.40;58.60;;;;;;5009784;28;20161;-70
2022/08/08 10:49:57;;;;;;;5.15;2.17;;;32.30;58.50;;;;;;4996718;28;20257;-70
2022/08/08 10:52:27;;;;;;;2.97;2.63;;;32.50;58.70;;;;;;5010818;28;20232;-69
2022/08/08 10:55:17;;;;;;;4.25;3.00;;;32.80;58.70;;;;;;4995507;28;20296;-69
2022/08/08 10:57:45;;;;;;;4.15;2.80;;;33.00;58.10;;;;;;5007208;28;20217;-69
2022/08/08 11:00:12;;;;;;;4.28;2.58;;;33.10;58.00;;;;;;5012957;28;20685;-70
2022/08/08 11:02:39;;;;;;;4.30;3.17;;;33.10;58.20;;;;;;5012582;28;20228;-68
2022/08/08 11:05:10;;;;;;;3.63;2.45;;;32.80;58.20;;;;;;5012869;28;20276;-68
2022/08/08 11:07:40;;;;;;;3.05;2.22;;;32.40;58.80;;;;;;5013327;28;20188;-68
2022/08/08 11:10:08;;;;;;;4.70;2.97;;;31.90;58.60;;;;;;5012356;28;20217;-69
2022/08/08 11:12:43;;;;;;;4.30;2.63;;;31.60;59.10;;;;;;5010557;28;20201;-68
2022/08/08 11:15:19;;;;;;;7.80;2.40;;;30.50;59.80;;;;;;5012625;28;20216;-68
2022/08/08 11:17:45;;;;;;;3.15;2.40;;;29.80;61.70;;;;;;5011286;28;20201;-68
2022/08/08 11:20:18;;;;;;;2.92;2.22;;;29.10;61.10;;;;;;5012324;28;20189;-68
2022/08/08 11:22:56;;;;;;;3.75;2.35;;;29.30;63.20;;;;;;5012782;28;20228;-68
2022/08/08 11:25:29;;;;;;;5.65;2.70;;;29.50;63.30;;;;;;5009582;28;20197;-68
2022/08/08 11:27:57;;;;;;;5.18;4.40;;;29.30;63.60;;;;;;5012034;28;20267;-69
2022/08/08 11:30:26;;;;;;;3.58;2.45;;;29.30;63.90;;;;;;4994325;28;20674;-68
2022/08/08 11:32:54;;;;;;;3.65;2.38;;;29.30;63.60;;;;;;5008600;28;20255;-68
2022/08/08 11:35:21;;;;;;;5.65;4.60;;;29.10;64.30;;;;;;5012475;28;20263;-69
2022/08/08 11:37:47;;;;;;;4.97;3.05;;;29.30;64.40;;;;;;5012601;28;20169;-68
2022/08/08 11:40:14;;;;;;;3.92;2.80;;;29.40;64.70;;;;;;5012110;28;20215;-67
2022/08/08 11:42:43;;;;;;;2.78;2.28;;;29.40;63.90;;;;;;5011574;28;20220;-69
2022/08/08 11:45:10;;;;;;;3.08;2.25;;;29.50;64.00;;;;;;5008752;28;20255;-68
2022/08/08 11:47:37;;;;;;;2.67;2.10;;;29.50;63.30;;;;;;5012072;28;20205;-70
2022/08/08 11:50:05;;;;;;;2.53;2.30;;;29.80;63.00;;;;;;5012879;28;20181;-69
2022/08/08 11:52:31;;;;;;;3.60;2.40;;;29.90;62.60;;;;;;5012118;28;20220;-68
2022/08/08 11:54:56;;;;;;;3.80;2.17;;;30.40;62.80;;;;;;5012018;28;20204;-68
2022/08/08 11:57:25;;;;;;;4.65;2.53;;;30.50;61.50;;;;;;5011748;28;20197;-68
2022/08/08 11:59:54;;;;;;;5.22;2.97;;;29.80;61.70;;;;;;4993979;28;20209;-68
2022/08/08 12:02:22;;;;;;;3.95;2.28;;;29.80;62.10;;;;;;5011916;28;20208;-69
2022/08/08 12:04:50;;;;;;;2.70;2.15;;;29.80;62.60;;;;;;5012124;28;20196;-69
2022/08/08 12:07:17;;;;;;;4.18;2.22;;;29.80;61.60;;;;;;4994245;28;20267;-69
2022/08/08 12:09:42;;;;;;;4.95;2.85;;;29.40;62.40;;;;;;5010419;28;20684;-69
2022/08/08 12:12:08;;;;;;;4.15;2.38;;;29.80;62.90;;;;;;4994089;28;20240;-69
2022/08/08 12:14:33;;;;;;;4.80;2.47;;;30.30;61.90;;;;;;5011333;28;20197;-68
2022/08/08 12:16:59;;;;;;;3.40;2.40;;;30.30;61.90;;;;;;5011246;28;20522;-69
2022/08/08 12:19:25;;;;;;;5.07;2.33;;;30.50;61.70;;;;;;5011485;28;20197;-69
2022/08/08 12:21:51;;;;;;;3.58;2.33;;;30.40;62.10;;;;;;5011414;28;20205;-69
2022/08/08 12:24:22;;;;;;;3.85;2.40;;;30.60;61.40;;;;;;5011291;28;20200;-69
2022/08/08 12:26:50;;;;;;;3.17;2.10;;;29.90;61.60;;;;;;4999835;28;20205;-69
2022/08/08 12:29:33;;;;;;;10.27;3.00;;;30.20;61.60;;;;;;5011174;28;20544;-69
2022/08/08 12:32:01;;;;;;;4.57;2.83;;;30.30;61.40;;;;;;5007187;28;20543;-69
2022/08/08 12:34:34;;;;;;;4.60;2.67;;;30.40;61.50;;;;;;5011741;28;20161;-69
2022/08/08 12:37:04;;;;;;;4.10;3.30;;;30.50;61.80;;;;;;5011548;28;20204;-69
2022/08/08 12:39:30;;;;;;;4.28;2.80;;;30.40;62.80;;;;;;5008691;28;20239;-68
2022/08/08 12:41:59;;;;;;;5.65;2.72;;;30.20;62.50;;;;;;5034395;22;20258;-75
2022/08/08 12:44:30;;;;;;;4.20;2.40;;;30.10;62.10;;;;;;5031503;28;20207;-75
2022/08/08 12:46:57;;;;;;;6.60;2.45;;;30.20;62.00;;;;;;5031526;28;20172;-75
2022/08/08 12:49:28;;;;;;;3.58;1.95;;;30.30;61.40;;;;;;5009874;28;20295;-75
2022/08/08 12:51:54;;;;;;;3.53;2.25;;;30.20;61.80;;;;;;5024181;28;20291;-75
2022/08/08 12:54:22;;;;;;;4.65;2.20;;;29.90;62.30;;;;;;4993426;28;20196;-76
2022/08/08 12:56:48;;;;;;;4.47;2.55;;;29.90;62.30;;;;;;4987165;28;20200;-76
2022/08/08 12:59:17;;;;;;;5.63;2.60;;;30.10;62.70;;;;;;5012287;28;20216;-75
2022/08/08 13:01:59;;;;;;;3.53;2.15;;;30.20;62.50;;;;;;5011296;28;20207;-75
2022/08/08 13:04:31;;;;;;;2.90;2.38;;;30.20;62.60;;;;;;5011441;28;20212;-76
2022/08/08 13:07:04;;;;;;;5.75;2.50;;;30.40;62.90;;;;;;5006462;28;20327;-75
2022/08/08 13:09:44;;;;;;;4.43;2.55;;;30.30;62.00;;;;;;5010252;28;20295;-75
2022/08/08 13:12:23;;;;;;;3.85;2.35;;;30.40;62.20;;;;;;5007678;28;20208;-74
2022/08/08 13:14:50;;;;;;;3.60;2.25;;;30.30;62.10;;;;;;5010950;28;20204;-75
2022/08/08 13:17:21;;;;;;;2.70;2.30;;;30.00;61.50;;;;;;5009518;28;20251;-75
2022/08/08 13:19:47;;;;;;;4.18;2.50;;;29.90;61.50;;;;;;4993141;28;20208;-75
2022/08/08 13:22:16;;;;;;;2.80;2.53;;;29.80;61.70;;;;;;5010498;28;20287;-74